createdAt,value
2018-05-01T00:00:14.891Z,994.53
2018-05-01T00:01:14.870Z,994.56
2018-05-01T00:02:14.851Z,994.63
2018-05-01T00:03:14.825Z,994.55
2018-05-01T00:04:14.796Z,994.55
2018-05-01T00:05:14.778Z,994.56
2018-05-01T00:06:14.752Z,994.55
2018-05-01T00:07:14.731Z,994.59
2018-05-01T00:08:14.705Z,994.63
2018-05-01T00:09:14.682Z,994.53
2018-05-01T00:10:14.662Z,994.47
2018-05-01T00:11:14.636Z,994.60
2018-05-01T00:12:14.610Z,994.54
2018-05-01T00:13:14.589Z,994.72
2018-05-01T00:14:14.565Z,994.60
2018-05-01T00:15:14.543Z,994.57
2018-05-01T00:16:14.518Z,994.47
2018-05-01T00:17:14.499Z,994.55
2018-05-01T00:18:14.471Z,994.63
2018-05-01T00:19:14.463Z,994.52
2018-05-01T00:20:14.427Z,994.66
2018-05-01T00:21:14.402Z,994.47
2018-05-01T00:22:14.379Z,994.57
2018-05-01T00:23:14.362Z,994.55
2018-05-01T00:24:14.338Z,994.56
2018-05-01T00:25:14.307Z,994.59
2018-05-01T00:26:14.286Z,994.72
2018-05-01T00:27:14.263Z,994.56
2018-05-01T00:28:14.240Z,994.56
2018-05-01T00:29:14.217Z,994.58
2018-05-01T00:30:14.196Z,994.66
2018-05-01T00:31:14.172Z,994.63
2018-05-01T00:32:14.144Z,994.72
2018-05-01T00:33:14.125Z,994.65
2018-05-01T00:34:14.098Z,994.67
2018-05-01T00:35:14.079Z,994.73
2018-05-01T00:36:14.052Z,994.68
2018-05-01T00:37:14.030Z,994.76
2018-05-01T00:38:14.008Z,994.81
2018-05-01T00:39:13.985Z,994.73
2018-05-01T00:40:13.963Z,994.71
2018-05-01T00:41:13.939Z,994.79
2018-05-01T00:42:13.914Z,994.58
2018-05-01T00:43:13.891Z,994.72
2018-05-01T00:44:13.867Z,994.67
2018-05-01T00:45:13.842Z,994.72
2018-05-01T00:46:13.817Z,994.74
2018-05-01T00:47:13.796Z,994.74
2018-05-01T00:48:13.772Z,994.76
2018-05-01T00:49:13.748Z,994.82
2018-05-01T00:50:13.723Z,994.97
2018-05-01T00:51:13.702Z,994.96
2018-05-01T00:52:13.684Z,994.83
2018-05-01T00:53:13.653Z,994.88
2018-05-01T00:54:13.632Z,994.78
2018-05-01T00:55:13.610Z,994.98
2018-05-01T00:56:13.593Z,994.92
2018-05-01T00:57:13.561Z,994.81
2018-05-01T00:58:13.538Z,994.84
2018-05-01T00:59:13.517Z,994.85
2018-05-01T01:00:13.489Z,994.84
2018-05-01T01:01:13.469Z,994.87
2018-05-01T01:02:13.446Z,994.90
2018-05-01T01:03:13.427Z,994.95
2018-05-01T01:04:13.396Z,994.88
2018-05-01T01:05:13.385Z,994.85
2018-05-01T01:06:13.353Z,994.98
2018-05-01T01:07:13.329Z,994.95
2018-05-01T01:08:13.327Z,994.96
2018-05-01T01:09:13.323Z,994.83
2018-05-01T01:10:13.257Z,994.83
2018-05-01T01:11:13.233Z,994.87
2018-05-01T01:12:13.210Z,995.08
2018-05-01T01:13:13.187Z,994.84
2018-05-01T01:14:13.164Z,994.92
2018-05-01T01:15:13.140Z,995.00
2018-05-01T01:16:13.116Z,994.95
2018-05-01T01:17:13.092Z,994.98
2018-05-01T01:18:13.079Z,994.88
2018-05-01T01:19:13.053Z,994.87
2018-05-01T01:20:13.023Z,994.94
2018-05-01T01:21:12.998Z,995.02
2018-05-01T01:22:12.991Z,995.32
2018-05-01T01:23:12.952Z,994.97
2018-05-01T01:24:12.929Z,995.05
2018-05-01T01:25:12.916Z,995.06
2018-05-01T01:26:12.884Z,994.98
2018-05-01T01:27:12.859Z,995.03
2018-05-01T01:28:12.834Z,995.09
2018-05-01T01:29:12.811Z,994.96
2018-05-01T01:30:12.787Z,995.03
2018-05-01T01:31:12.768Z,995.11
2018-05-01T01:32:12.742Z,995.16
2018-05-01T01:33:12.722Z,995.09
2018-05-01T01:34:12.727Z,995.24
2018-05-01T01:35:12.670Z,995.01
2018-05-01T01:36:12.651Z,995.13
2018-05-01T01:37:12.627Z,995.16
2018-05-01T01:38:12.600Z,995.19
2018-05-01T01:39:12.578Z,995.17
2018-05-01T01:40:12.555Z,995.11
2018-05-01T01:41:12.530Z,995.15
2018-05-01T01:42:12.506Z,995.09
2018-05-01T01:43:12.485Z,995.10
2018-05-01T01:44:12.460Z,995.18
2018-05-01T01:45:12.438Z,995.14
2018-05-01T01:46:12.420Z,995.08
2018-05-01T01:47:12.395Z,995.07
2018-05-01T01:48:12.364Z,995.27
2018-05-01T01:49:12.344Z,995.26
2018-05-01T01:50:12.374Z,995.16
2018-05-01T01:51:12.295Z,995.31
2018-05-01T01:52:12.273Z,995.44
2018-05-01T01:53:12.251Z,995.07
2018-05-01T01:54:12.225Z,995.18
2018-05-01T01:55:12.200Z,995.15
2018-05-01T01:56:12.178Z,995.17
2018-05-01T01:57:12.154Z,995.18
2018-05-01T01:58:12.130Z,995.25
2018-05-01T01:59:12.107Z,995.16
2018-05-01T02:00:12.080Z,995.37
2018-05-01T02:01:12.067Z,995.26
2018-05-01T02:02:12.042Z,995.21
2018-05-01T02:03:12.015Z,995.26
2018-05-01T02:04:11.985Z,995.33
2018-05-01T02:05:11.964Z,995.26
2018-05-01T02:06:11.945Z,995.34
2018-05-01T02:07:11.919Z,995.23
2018-05-01T02:08:11.893Z,995.24
2018-05-01T02:09:11.876Z,995.27
2018-05-01T02:10:11.846Z,995.23
2018-05-01T02:11:11.823Z,995.45
2018-05-01T02:12:11.800Z,995.39
2018-05-01T02:13:11.777Z,995.28
2018-05-01T02:14:11.751Z,995.32
2018-05-01T02:15:11.732Z,995.34
2018-05-01T02:16:11.711Z,995.28
2018-05-01T02:17:11.693Z,995.36
2018-05-01T02:18:11.656Z,995.36
2018-05-01T02:19:11.633Z,995.36
2018-05-01T02:20:11.620Z,995.50
2018-05-01T02:21:11.585Z,995.48
2018-05-01T02:22:11.564Z,995.39
2018-05-01T02:23:11.540Z,995.37
2018-05-01T02:24:11.541Z,995.39
2018-05-01T02:25:11.490Z,995.42
2018-05-01T02:26:11.473Z,995.43
2018-05-01T02:27:11.459Z,995.46
2018-05-01T02:28:11.422Z,995.42
2018-05-01T02:29:11.396Z,995.46
2018-05-01T02:30:11.372Z,995.38
2018-05-01T02:31:11.358Z,995.47
2018-05-01T02:32:11.357Z,995.53
2018-05-01T02:33:11.312Z,995.49
2018-05-01T02:34:11.280Z,995.52
2018-05-01T02:35:11.256Z,995.53
2018-05-01T02:36:11.252Z,995.53
2018-05-01T02:37:11.211Z,995.44
2018-05-01T02:38:11.184Z,995.39
2018-05-01T02:39:11.162Z,995.54
2018-05-01T02:40:11.135Z,995.68
2018-05-01T02:41:11.200Z,995.54
2018-05-01T02:42:11.090Z,995.47
2018-05-01T02:43:11.071Z,995.59
2018-05-01T02:44:11.042Z,995.56
2018-05-01T02:45:11.018Z,995.50
2018-05-01T02:46:10.995Z,995.50
2018-05-01T02:47:10.983Z,995.63
2018-05-01T02:48:10.947Z,995.58
2018-05-01T02:49:10.925Z,995.55
2018-05-01T02:50:10.906Z,995.65
2018-05-01T02:51:10.876Z,995.61
2018-05-01T02:52:10.850Z,995.68
2018-05-01T02:53:10.828Z,995.59
2018-05-01T02:54:10.815Z,995.62
2018-05-01T02:55:10.782Z,995.70
2018-05-01T02:56:10.759Z,995.65
2018-05-01T02:57:10.734Z,995.64
2018-05-01T02:58:10.710Z,995.62
2018-05-01T02:59:10.688Z,995.63
2018-05-01T03:00:10.663Z,995.71
2018-05-01T03:01:10.636Z,995.64
2018-05-01T03:02:10.615Z,995.68
2018-05-01T03:03:10.593Z,995.59
2018-05-01T03:04:10.565Z,995.66
2018-05-01T03:05:10.541Z,995.71
2018-05-01T03:06:10.525Z,995.78
2018-05-01T03:07:10.495Z,995.88
2018-05-01T03:08:10.471Z,995.77
2018-05-01T03:09:10.449Z,995.73
2018-05-01T03:10:10.423Z,995.65
2018-05-01T03:11:10.400Z,995.79
2018-05-01T03:12:10.376Z,995.66
2018-05-01T03:13:10.353Z,995.73
2018-05-01T03:14:10.335Z,995.79
2018-05-01T03:15:10.322Z,995.80
2018-05-01T03:16:10.280Z,995.76
2018-05-01T03:17:10.256Z,995.78
2018-05-01T03:18:10.238Z,995.80
2018-05-01T03:19:10.212Z,995.83
2018-05-01T03:20:10.182Z,995.87
2018-05-01T03:21:10.162Z,995.80
2018-05-01T03:22:10.137Z,995.85
2018-05-01T03:23:10.113Z,995.86
2018-05-01T03:24:10.088Z,995.82
2018-05-01T03:25:10.073Z,995.96
2018-05-01T03:26:10.043Z,995.98
2018-05-01T03:27:10.024Z,996.10
2018-05-01T03:28:10.005Z,995.88
2018-05-01T03:29:09.972Z,995.83
2018-05-01T03:30:09.948Z,995.97
2018-05-01T03:31:09.923Z,995.97
2018-05-01T03:32:09.899Z,995.96
2018-05-01T03:33:09.874Z,995.89
2018-05-01T03:34:09.853Z,996.01
2018-05-01T03:35:09.839Z,996.02
2018-05-01T03:36:09.814Z,996.03
2018-05-01T03:37:09.778Z,996.07
2018-05-01T03:38:09.773Z,996.08
2018-05-01T03:39:09.807Z,996.01
2018-05-01T03:40:09.725Z,996.12
2018-05-01T03:41:09.683Z,995.98
2018-05-01T03:42:09.661Z,996.05
2018-05-01T03:43:09.635Z,996.19
2018-05-01T03:44:09.640Z,996.15
2018-05-01T03:45:09.587Z,996.35
2018-05-01T03:46:09.565Z,996.11
2018-05-01T03:47:09.544Z,996.08
2018-05-01T03:48:09.519Z,996.15
2018-05-01T03:49:09.496Z,996.12
2018-05-01T03:50:09.470Z,996.26
2018-05-01T03:51:09.446Z,996.38
2018-05-01T03:52:09.422Z,996.23
2018-05-01T03:53:09.398Z,996.23
2018-05-01T03:54:09.373Z,996.32
2018-05-01T03:55:09.352Z,996.28
2018-05-01T03:56:09.395Z,996.23
2018-05-01T03:57:09.305Z,996.39
2018-05-01T03:58:09.279Z,996.42
2018-05-01T03:59:09.253Z,996.35
2018-05-01T04:00:09.231Z,996.41
2018-05-01T04:01:09.204Z,996.36
2018-05-01T04:02:09.184Z,996.46
2018-05-01T04:03:09.158Z,996.35
2018-05-01T04:04:09.132Z,996.52
2018-05-01T04:05:09.110Z,996.56
2018-05-01T04:06:09.087Z,996.48
2018-05-01T04:07:09.068Z,996.51
2018-05-01T04:08:09.041Z,996.52
2018-05-01T04:09:09.015Z,996.54
2018-05-01T04:10:08.994Z,996.68
2018-05-01T04:11:08.968Z,996.58
2018-05-01T04:12:08.943Z,996.59
2018-05-01T04:13:08.919Z,996.62
2018-05-01T04:14:08.894Z,996.62
2018-05-01T04:15:08.877Z,996.60
2018-05-01T04:16:08.846Z,996.61
2018-05-01T04:17:08.827Z,996.67
2018-05-01T04:18:08.803Z,996.65
2018-05-01T04:19:08.792Z,996.66
2018-05-01T04:20:08.749Z,996.86
2018-05-01T04:21:08.726Z,996.87
2018-05-01T04:22:08.715Z,996.76
2018-05-01T04:23:08.702Z,996.71
2018-05-01T04:24:08.653Z,996.76
2018-05-01T04:25:08.643Z,996.77
2018-05-01T04:26:08.609Z,996.92
2018-05-01T04:27:08.660Z,996.95
2018-05-01T04:28:08.572Z,996.72
2018-05-01T04:29:08.536Z,996.78
2018-05-01T04:30:08.512Z,996.87
2018-05-01T04:31:08.486Z,996.90
2018-05-01T04:32:08.467Z,996.99
2018-05-01T04:33:08.440Z,996.92
2018-05-01T04:34:08.412Z,996.88
2018-05-01T04:35:08.399Z,996.93
2018-05-01T04:36:08.365Z,997.11
2018-05-01T04:37:08.342Z,996.97
2018-05-01T04:38:08.318Z,996.97
2018-05-01T04:39:08.295Z,997.27
2018-05-01T04:40:08.269Z,997.13
2018-05-01T04:41:08.248Z,997.05
2018-05-01T04:42:08.224Z,997.13
2018-05-01T04:43:08.202Z,997.27
2018-05-01T04:44:08.172Z,997.18
2018-05-01T04:45:08.149Z,997.11
2018-05-01T04:46:08.124Z,997.22
2018-05-01T04:47:08.101Z,997.10
2018-05-01T04:48:08.074Z,997.16
2018-05-01T04:49:08.052Z,997.17
2018-05-01T04:50:08.066Z,997.18
2018-05-01T04:51:08.004Z,997.33
2018-05-01T04:52:07.989Z,997.32
2018-05-01T04:53:07.958Z,997.20
2018-05-01T04:54:07.932Z,997.26
2018-05-01T04:55:07.908Z,997.21
2018-05-01T04:56:07.884Z,997.34
2018-05-01T04:57:07.864Z,997.44
2018-05-01T04:58:07.836Z,997.38
2018-05-01T04:59:07.811Z,997.55
2018-05-01T05:00:07.786Z,997.59
2018-05-01T05:01:07.773Z,997.50
2018-05-01T05:02:07.744Z,997.43
2018-05-01T05:03:07.718Z,997.45
2018-05-01T05:04:07.692Z,997.69
2018-05-01T05:05:07.667Z,997.69
2018-05-01T05:06:07.656Z,997.63
2018-05-01T05:07:07.635Z,997.56
2018-05-01T05:08:07.616Z,997.55
2018-05-01T05:09:07.580Z,997.78
2018-05-01T05:10:07.551Z,997.58
2018-05-01T05:11:07.548Z,997.69
2018-05-01T05:12:07.518Z,997.60
2018-05-01T05:13:07.475Z,997.69
2018-05-01T05:14:07.451Z,997.61
2018-05-01T05:15:07.437Z,997.73
2018-05-01T05:16:07.408Z,997.74
2018-05-01T05:17:07.378Z,997.74
2018-05-01T05:18:07.354Z,997.78
2018-05-01T05:19:07.331Z,997.77
2018-05-01T05:20:07.304Z,997.87
2018-05-01T05:21:07.286Z,997.84
2018-05-01T05:22:07.256Z,997.86
2018-05-01T05:23:07.242Z,997.91
2018-05-01T05:24:07.209Z,997.73
2018-05-01T05:25:07.189Z,998.07
2018-05-01T05:26:07.161Z,997.98
2018-05-01T05:27:07.137Z,997.97
2018-05-01T05:28:07.114Z,998.00
2018-05-01T05:29:07.090Z,998.03
2018-05-01T05:30:07.065Z,997.97
2018-05-01T05:31:07.039Z,998.07
2018-05-01T05:32:07.016Z,998.01
2018-05-01T05:33:07.057Z,998.06
2018-05-01T05:34:06.970Z,998.11
2018-05-01T05:35:06.943Z,998.12
2018-05-01T05:36:06.918Z,998.29
2018-05-01T05:37:06.897Z,998.19
2018-05-01T05:38:06.872Z,998.21
2018-05-01T05:39:06.848Z,998.51
2018-05-01T05:40:06.820Z,998.28
2018-05-01T05:41:06.798Z,998.24
2018-05-01T05:42:06.774Z,998.26
2018-05-01T05:43:06.747Z,998.35
2018-05-01T05:44:06.733Z,998.29
2018-05-01T05:45:06.701Z,998.33
2018-05-01T05:46:06.676Z,998.41
2018-05-01T05:47:06.659Z,998.42
2018-05-01T05:48:06.632Z,998.45
2018-05-01T05:49:06.605Z,998.53
2018-05-01T05:50:06.581Z,998.45
2018-05-01T05:51:06.557Z,998.54
2018-05-01T05:52:06.534Z,998.49
2018-05-01T05:53:06.510Z,998.50
2018-05-01T05:54:06.483Z,998.79
2018-05-01T05:55:06.458Z,998.63
2018-05-01T05:56:06.436Z,998.61
2018-05-01T05:57:06.414Z,998.74
2018-05-01T05:58:06.389Z,998.57
2018-05-01T05:59:06.435Z,998.65
2018-05-01T06:00:06.341Z,998.64
2018-05-01T06:01:06.320Z,998.72
2018-05-01T06:02:06.295Z,998.71
2018-05-01T06:03:06.280Z,998.84
2018-05-01T06:04:06.243Z,998.74
2018-05-01T06:05:06.217Z,998.85
2018-05-01T06:06:06.193Z,998.76
2018-05-01T06:07:06.173Z,998.85
2018-05-01T06:08:06.143Z,998.84
2018-05-01T06:09:06.121Z,998.90
2018-05-01T06:10:06.138Z,998.82
2018-05-01T06:11:06.071Z,998.94
2018-05-01T06:12:06.100Z,998.83
2018-05-01T06:13:06.107Z,998.83
2018-05-01T06:14:06.001Z,998.87
2018-05-01T06:15:05.988Z,998.95
2018-05-01T06:16:05.952Z,998.94
2018-05-01T06:17:06.004Z,998.93
2018-05-01T06:18:05.944Z,999.01
2018-05-01T06:19:05.934Z,998.96
2018-05-01T06:20:05.860Z,998.93
2018-05-01T06:21:05.868Z,999.11
2018-05-01T06:22:06.022Z,999.03
2018-05-01T06:23:05.785Z,999.08
2018-05-01T06:24:05.801Z,999.05
2018-05-01T06:25:05.739Z,999.15
2018-05-01T06:26:05.711Z,999.12
2018-05-01T06:27:05.703Z,999.14
2018-05-01T06:28:05.664Z,999.17
2018-05-01T06:29:05.660Z,999.20
2018-05-01T06:30:05.617Z,999.16
2018-05-01T06:31:05.600Z,999.20
2018-05-01T06:32:05.564Z,999.20
2018-05-01T06:33:05.541Z,999.31
2018-05-01T06:34:05.518Z,999.46
2018-05-01T06:35:05.492Z,999.30
2018-05-01T06:36:05.478Z,999.28
2018-05-01T06:37:05.446Z,999.37
2018-05-01T06:38:05.421Z,999.30
2018-05-01T06:39:05.468Z,999.49
2018-05-01T06:40:05.396Z,999.39
2018-05-01T06:41:05.354Z,999.40
2018-05-01T06:42:05.326Z,999.64
2018-05-01T06:43:05.369Z,999.37
2018-05-01T06:44:05.285Z,999.45
2018-05-01T06:45:05.261Z,999.58
2018-05-01T06:46:05.234Z,999.51
2018-05-01T06:47:05.221Z,999.49
2018-05-01T06:48:05.200Z,999.57
2018-05-01T06:49:05.161Z,999.59
2018-05-01T06:50:05.143Z,999.67
2018-05-01T06:51:05.109Z,999.72
2018-05-01T06:52:05.088Z,999.61
2018-05-01T06:53:05.093Z,999.68
2018-05-01T06:54:05.040Z,999.74
2018-05-01T06:55:05.053Z,999.73
2018-05-01T06:56:04.991Z,999.73
2018-05-01T06:57:04.966Z,999.84
2018-05-01T06:58:04.941Z,999.82
2018-05-01T06:59:04.920Z,999.88
2018-05-01T07:00:04.895Z,999.86
2018-05-01T07:01:04.938Z,999.87
2018-05-01T07:02:05.409Z,999.79
2018-05-01T07:03:04.882Z,999.79
2018-05-01T07:04:04.852Z,999.85
2018-05-01T07:05:04.775Z,1000.04
2018-05-01T07:06:04.754Z,999.98
2018-05-01T07:07:04.730Z,1000.03
2018-05-01T07:08:04.751Z,1000.10
2018-05-01T07:09:04.688Z,1000.11
2018-05-01T07:10:04.689Z,1000.07
2018-05-01T07:11:04.658Z,1000.23
2018-05-01T07:12:04.611Z,1000.14
2018-05-01T07:13:04.589Z,1000.05
2018-05-01T07:14:04.564Z,999.94
2018-05-01T07:15:04.542Z,1000.07
2018-05-01T07:16:04.513Z,1000.14
2018-05-01T07:17:04.511Z,1000.38
2018-05-01T07:18:04.466Z,1000.14
2018-05-01T07:19:04.448Z,1000.20
2018-05-01T07:20:04.432Z,1000.22
2018-05-01T07:21:04.394Z,1000.15
2018-05-01T07:22:04.370Z,1000.35
2018-05-01T07:23:04.364Z,1000.32
2018-05-01T07:24:04.321Z,1000.48
2018-05-01T07:25:04.302Z,1000.33
2018-05-01T07:26:04.334Z,1000.29
2018-05-01T07:27:04.262Z,1000.37
2018-05-01T07:28:04.226Z,1000.43
2018-05-01T07:29:04.207Z,1000.40
2018-05-01T07:30:04.186Z,1000.36
2018-05-01T07:31:04.158Z,1000.46
2018-05-01T07:32:04.204Z,1000.42
2018-05-01T07:33:04.174Z,1000.56
2018-05-01T07:34:04.138Z,1000.41
2018-05-01T07:35:04.070Z,1000.54
2018-05-01T07:36:04.041Z,1000.49
2018-05-01T07:37:04.014Z,1000.51
2018-05-01T07:38:03.993Z,1000.55
2018-05-01T07:39:03.968Z,1000.56
2018-05-01T07:40:03.996Z,1000.64
2018-05-01T07:41:04.285Z,1000.55
2018-05-01T07:42:03.894Z,1000.64
2018-05-01T07:43:03.885Z,1000.67
2018-05-01T07:44:03.853Z,1000.74
2018-05-01T07:45:03.833Z,1000.67
2018-05-01T07:46:03.799Z,1000.65
2018-05-01T07:47:03.777Z,1000.63
2018-05-01T07:48:03.750Z,1000.63
2018-05-01T07:49:03.792Z,1000.71
2018-05-01T07:50:03.704Z,1000.74
2018-05-01T07:51:03.681Z,1000.76
2018-05-01T07:52:03.659Z,1000.70
2018-05-01T07:53:03.634Z,1000.77
2018-05-01T07:54:03.610Z,1000.72
2018-05-01T07:55:03.585Z,1000.80
2018-05-01T07:56:03.568Z,1000.88
2018-05-01T07:57:03.537Z,1000.75
2018-05-01T07:58:03.561Z,1000.82
2018-05-01T07:59:03.491Z,1000.86
2018-05-01T08:00:03.469Z,1000.85
2018-05-01T08:01:03.443Z,1000.88
2018-05-01T08:02:03.428Z,1000.90
2018-05-01T08:03:03.396Z,1001.10
2018-05-01T08:04:03.479Z,1001.06
2018-05-01T08:05:03.347Z,1001.03
2018-05-01T08:06:03.357Z,1001.09
2018-05-01T08:07:03.315Z,1001.49
2018-05-01T08:08:03.324Z,1001.00
2018-05-01T08:09:03.300Z,1001.17
2018-05-01T08:10:03.234Z,1001.11
2018-05-01T08:11:03.206Z,1001.11
2018-05-01T08:12:03.205Z,1001.23
2018-05-01T08:13:03.160Z,1001.14
2018-05-01T08:14:03.137Z,1001.11
2018-05-01T08:15:03.170Z,1001.18
2018-05-01T08:16:03.090Z,1001.26
2018-05-01T08:17:03.067Z,1001.17
2018-05-01T08:18:03.040Z,1001.22
2018-05-01T08:19:03.018Z,1001.23
2018-05-01T08:20:02.997Z,1001.36
2018-05-01T08:21:02.967Z,1001.22
2018-05-01T08:22:02.956Z,1001.32
2018-05-01T08:23:02.924Z,1001.40
2018-05-01T08:24:02.897Z,1001.43
2018-05-01T08:25:04.388Z,1001.43
2018-05-01T08:26:02.866Z,1001.31
2018-05-01T08:27:02.856Z,1001.44
2018-05-01T08:28:02.828Z,1001.49
2018-05-01T08:29:02.788Z,1001.56
2018-05-01T08:30:02.796Z,1001.43
2018-05-01T08:31:02.734Z,1001.45
2018-05-01T08:32:02.737Z,1001.44
2018-05-01T08:33:02.744Z,1001.52
2018-05-01T08:34:02.773Z,1001.57
2018-05-01T08:35:02.700Z,1001.56
2018-05-01T08:36:02.667Z,1001.47
2018-05-01T08:37:02.634Z,1001.51
2018-05-01T08:38:03.407Z,1001.50
2018-05-01T08:39:03.449Z,1001.52
2018-05-01T08:40:02.545Z,1001.54
2018-05-01T08:41:02.554Z,1001.58
2018-05-01T08:42:02.529Z,1001.63
2018-05-01T08:43:02.453Z,1001.65
2018-05-01T08:44:02.479Z,1001.59
2018-05-01T08:45:02.400Z,1001.73
2018-05-01T08:46:02.912Z,1001.64
2018-05-01T08:47:02.351Z,1001.61
2018-05-01T08:48:02.412Z,1001.75
2018-05-01T08:49:02.362Z,1001.70
2018-05-01T08:50:02.291Z,1001.72
2018-05-01T08:51:02.266Z,1001.65
2018-05-01T08:52:02.295Z,1001.68
2018-05-01T08:53:02.249Z,1001.81
2018-05-01T08:54:02.188Z,1001.70
2018-05-01T08:55:02.169Z,1001.75
2018-05-01T08:56:02.177Z,1001.77
2018-05-01T08:57:02.121Z,1001.90
2018-05-01T08:58:02.098Z,1001.90
2018-05-01T08:59:02.084Z,1001.89
2018-05-01T09:00:02.055Z,1001.87
2018-05-01T09:01:02.094Z,1001.92
2018-05-01T09:02:02.001Z,1001.99
2018-05-01T09:03:01.979Z,1001.91
2018-05-01T09:04:01.963Z,1002.17
2018-05-01T09:05:01.937Z,1001.98
2018-05-01T09:06:01.913Z,1001.97
2018-05-01T09:07:01.885Z,1002.15
2018-05-01T09:08:01.862Z,1002.14
2018-05-01T09:09:01.867Z,1002.03
2018-05-01T09:10:01.821Z,1002.06
2018-05-01T09:11:01.796Z,1002.09
2018-05-01T09:12:01.770Z,1002.12
2018-05-01T09:13:01.754Z,1002.22
2018-05-01T09:14:01.724Z,1002.24
2018-05-01T09:15:01.703Z,1002.22
2018-05-01T09:16:01.685Z,1002.23
2018-05-01T09:17:01.668Z,1002.27
2018-05-01T09:18:01.657Z,1002.27
2018-05-01T09:19:01.614Z,1002.17
2018-05-01T09:20:01.591Z,1002.25
2018-05-01T09:21:01.613Z,1002.28
2018-05-01T09:22:01.542Z,1002.31
2018-05-01T09:23:01.529Z,1002.31
2018-05-01T09:24:01.585Z,1002.27
2018-05-01T09:25:01.515Z,1002.32
2018-05-01T09:26:01.541Z,1002.34
2018-05-01T09:27:01.431Z,1002.38
2018-05-01T09:28:01.412Z,1002.30
2018-05-01T09:29:01.389Z,1002.43
2018-05-01T09:30:01.363Z,1002.38
2018-05-01T09:31:01.332Z,1002.48
2018-05-01T09:32:01.326Z,1002.47
2018-05-01T09:33:01.305Z,1002.56
2018-05-01T09:34:01.265Z,1002.46
2018-05-01T09:35:01.243Z,1002.54
2018-05-01T09:36:01.221Z,1002.59
2018-05-01T09:37:01.201Z,1002.41
2018-05-01T09:38:01.172Z,1002.43
2018-05-01T09:39:01.195Z,1002.55
2018-05-01T09:40:01.126Z,1002.54
2018-05-01T09:41:01.111Z,1002.61
2018-05-01T09:42:01.152Z,1002.69
2018-05-01T09:43:01.060Z,1002.62
2018-05-01T09:44:01.130Z,1002.63
2018-05-01T09:45:01.088Z,1002.67
2018-05-01T09:46:01.016Z,1002.72
2018-05-01T09:47:00.996Z,1002.73
2018-05-01T09:48:00.954Z,1002.86
2018-05-01T09:49:00.926Z,1002.66
2018-05-01T09:50:00.930Z,1002.72
2018-05-01T09:51:00.903Z,1002.64
2018-05-01T09:52:00.854Z,1002.76
2018-05-01T09:53:00.837Z,1002.72
2018-05-01T09:54:00.814Z,1002.76
2018-05-01T09:55:00.784Z,1002.83
2018-05-01T09:56:00.765Z,1002.61
2018-05-01T09:57:00.741Z,1002.66
2018-05-01T09:58:00.766Z,1002.63
2018-05-01T09:59:00.699Z,1002.81
2018-05-01T10:00:00.694Z,1002.69
2018-05-01T10:01:00.723Z,1002.64
2018-05-01T10:02:00.676Z,1002.70
2018-05-01T10:03:00.627Z,1002.68
2018-05-01T10:04:00.585Z,1002.75
2018-05-01T10:05:00.561Z,1002.75
2018-05-01T10:06:00.540Z,1002.78
2018-05-01T10:07:00.517Z,1002.78
2018-05-01T10:08:00.496Z,1002.85
2018-05-01T10:09:00.473Z,1002.83
2018-05-01T10:10:00.452Z,1002.79
2018-05-01T10:11:00.430Z,1002.87
2018-05-01T10:12:00.409Z,1002.82
2018-05-01T10:13:00.385Z,1002.89
2018-05-01T10:14:00.364Z,1002.93
2018-05-01T10:15:00.385Z,1002.93
2018-05-01T10:16:00.318Z,1002.84
2018-05-01T10:17:00.316Z,1002.84
2018-05-01T10:18:00.322Z,1002.87
2018-05-01T10:19:00.311Z,1002.82
2018-05-01T10:20:00.283Z,1002.94
2018-05-01T10:21:00.252Z,1003.00
2018-05-01T10:22:00.199Z,1002.91
2018-05-01T10:23:00.208Z,1002.92
2018-05-01T10:24:00.144Z,1002.91
2018-05-01T10:25:00.128Z,1002.97
2018-05-01T10:26:00.120Z,1002.99
2018-05-01T10:27:00.080Z,1002.89
2018-05-01T10:28:00.059Z,1003.02
2018-05-01T10:29:00.048Z,1003.03
2018-05-01T10:30:00.014Z,1003.03
2018-05-01T10:30:59.995Z,1002.98
2018-05-01T10:31:59.970Z,1002.98
2018-05-01T10:32:59.953Z,1003.18
2018-05-01T10:33:59.929Z,1003.14
2018-05-01T10:34:59.930Z,1003.15
2018-05-01T10:35:59.883Z,1003.10
2018-05-01T10:36:59.863Z,1003.11
2018-05-01T10:37:59.841Z,1003.14
2018-05-01T10:38:59.885Z,1003.13
2018-05-01T10:39:59.804Z,1003.05
2018-05-01T10:40:59.783Z,1002.97
2018-05-01T10:41:59.756Z,1003.03
2018-05-01T10:42:59.734Z,1003.14
2018-05-01T10:43:59.737Z,1003.11
2018-05-01T10:44:59.749Z,1003.22
2018-05-01T10:45:59.674Z,1003.26
2018-05-01T10:46:59.656Z,1003.13
2018-05-01T10:47:59.633Z,1003.24
2018-05-01T10:48:59.622Z,1003.15
2018-05-01T10:49:59.590Z,1003.11
2018-05-01T10:50:59.571Z,1003.19
2018-05-01T10:51:59.557Z,1003.23
2018-05-01T10:52:59.529Z,1003.29
2018-05-01T10:53:59.511Z,1003.26
2018-05-01T10:54:59.492Z,1003.52
2018-05-01T10:55:59.467Z,1003.67
2018-05-01T10:56:59.453Z,1003.60
2018-05-01T10:57:59.430Z,1003.49
2018-05-01T10:58:59.407Z,1003.39
2018-05-01T10:59:59.430Z,1003.42
2018-05-01T11:00:59.958Z,1003.48
2018-05-01T11:01:59.355Z,1003.38
2018-05-01T11:02:59.330Z,1003.32
2018-05-01T11:03:59.311Z,1003.43
2018-05-01T11:04:59.293Z,1003.32
2018-05-01T11:05:59.277Z,1003.30
2018-05-01T11:06:59.297Z,1003.33
2018-05-01T11:07:59.254Z,1003.28
2018-05-01T11:08:59.219Z,1003.43
2018-05-01T11:09:59.227Z,1003.38
2018-05-01T11:10:59.192Z,1003.36
2018-05-01T11:11:59.292Z,1003.32
2018-05-01T11:12:59.145Z,1003.62
2018-05-01T11:13:59.182Z,1003.48
2018-05-01T11:14:59.167Z,1003.53
2018-05-01T11:15:59.106Z,1003.55
2018-05-01T11:16:59.088Z,1003.42
2018-05-01T11:17:59.079Z,1003.44
2018-05-01T11:18:59.099Z,1003.59
2018-05-01T11:19:59.030Z,1003.63
2018-05-01T11:20:59.000Z,1003.60
2018-05-01T11:21:58.976Z,1003.57
2018-05-01T11:22:58.960Z,1003.59
2018-05-01T11:23:58.936Z,1003.58
2018-05-01T11:24:58.919Z,1003.52
2018-05-01T11:25:58.981Z,1003.56
2018-05-01T11:26:58.886Z,1003.48
2018-05-01T11:27:58.866Z,1003.57
2018-05-01T11:28:58.844Z,1003.57
2018-05-01T11:29:58.823Z,1003.69
2018-05-01T11:30:58.805Z,1003.71
2018-05-01T11:31:58.783Z,1003.75
2018-05-01T11:32:58.765Z,1003.60
2018-05-01T11:33:58.747Z,1003.71
2018-05-01T11:34:58.726Z,1003.71
2018-05-01T11:35:58.706Z,1003.70
2018-05-01T11:36:58.689Z,1003.72
2018-05-01T11:37:58.671Z,1003.81
2018-05-01T11:38:58.652Z,1003.89
2018-05-01T11:39:58.632Z,1003.71
2018-05-01T11:40:58.615Z,1003.90
2018-05-01T11:41:58.596Z,1003.84
2018-05-01T11:42:58.594Z,1003.96
2018-05-01T11:43:58.616Z,1004.00
2018-05-01T11:44:58.594Z,1004.00
2018-05-01T11:45:58.567Z,1004.07
2018-05-01T11:46:58.568Z,1003.83
2018-05-01T11:47:58.536Z,1004.20
2018-05-01T11:48:58.478Z,1004.09
2018-05-01T11:49:58.462Z,1004.08
2018-05-01T11:50:58.440Z,1004.13
2018-05-01T11:51:58.425Z,1004.08
2018-05-01T11:52:58.405Z,1003.96
2018-05-01T11:53:58.432Z,1003.98
2018-05-01T11:54:58.432Z,1004.00
2018-05-01T11:55:58.411Z,1004.02
2018-05-01T11:56:58.348Z,1003.94
2018-05-01T11:57:58.325Z,1004.04
2018-05-01T11:58:58.310Z,1004.04
2018-05-01T11:59:58.291Z,1003.89
2018-05-01T12:00:58.276Z,1003.92
2018-05-01T12:01:58.323Z,1004.08
2018-05-01T12:02:58.325Z,1004.04
2018-05-01T12:03:58.228Z,1004.12
2018-05-01T12:04:58.207Z,1004.27
2018-05-01T12:05:58.217Z,1004.14
2018-05-01T12:06:58.197Z,1004.22
2018-05-01T12:07:58.170Z,1004.38
2018-05-01T12:08:58.191Z,1004.28
2018-05-01T12:09:58.202Z,1004.29
2018-05-01T12:10:58.156Z,1004.45
2018-05-01T12:11:58.115Z,1004.23
2018-05-01T12:12:58.080Z,1004.24
2018-05-01T12:13:58.111Z,1004.27
2018-05-01T12:14:58.068Z,1004.25
2018-05-01T12:15:58.075Z,1004.33
2018-05-01T12:16:59.006Z,1004.37
2018-05-01T12:17:58.069Z,1004.22